Time;durP1;ratioP1;P1;durP2;ratioP2;P2;SDS_P1;SDS_P2;PMS_P1;PMS_P2;Temp;Humidity;BMP_temperature;BMP_pressure;BME280_temperature;BME280_humidity;BME280_pressure;Samples;Min_cycle;Max_cycle;Signal;HPM_P1;HPM_P2
2023/06/03 00:00:28;;;;;;;3.55;0.50;;;11.10;99.90;;;;;;4935234;29;20483;-61
2023/06/03 00:02:56;;;;;;;0.65;0.65;;;10.80;99.90;;;;;;4935449;29;20139;-62
2023/06/03 00:05:22;;;;;;;0.20;0.20;;;10.90;99.90;;;;;;4935164;29;20059;-61
2023/06/03 00:07:48;;;;;;;0.30;0.30;;;11.00;99.90;;;;;;4935154;29;20106;-62
2023/06/03 00:10:14;;;;;;;;;;;11.00;99.90;;;;;;4935536;29;20043;-62
2023/06/03 00:12:40;;;;;;;0.30;0.30;;;11.20;99.90;;;;;;4934838;29;19930;-62
2023/06/03 00:15:07;;;;;;;2.97;0.52;;;10.50;99.90;;;;;;4934784;29;20469;-62
2023/06/03 00:17:33;;;;;;;0.30;0.30;;;10.90;99.90;;;;;;4935353;29;20059;-62
2023/06/03 00:20:06;;;;;;;0.20;0.20;;;11.10;99.90;;;;;;4935340;29;20127;-62
2023/06/03 00:22:38;;;;;;;0.30;0.30;;;10.60;99.90;;;;;;4935387;29;20056;-62
2023/06/03 00:25:07;;;;;;;0.30;0.30;;;10.70;99.90;;;;;;4935107;29;20064;-62
2023/06/03 00:27:34;;;;;;;0.20;0.20;;;10.90;99.90;;;;;;4934934;29;20516;-62
2023/06/03 00:30:01;;;;;;;0.30;0.30;;;11.10;99.90;;;;;;4934985;29;20126;-62
2023/06/03 00:32:27;;;;;;;0.32;0.32;;;10.70;99.90;;;;;;4918191;29;20059;-61
2023/06/03 00:34:52;;;;;;;0.30;0.30;;;10.60;99.90;;;;;;4934928;29;20134;-61
2023/06/03 00:37:18;;;;;;;2.25;0.45;;;10.80;99.90;;;;;;4934833;29;20054;-61
2023/06/03 00:39:43;;;;;;;0.20;0.20;;;10.80;99.90;;;;;;4917691;29;20374;-61
2023/06/03 00:42:09;;;;;;;0.20;0.20;;;10.70;99.90;;;;;;4934974;29;20051;-61
2023/06/03 00:44:35;;;;;;;0.30;0.30;;;10.60;99.90;;;;;;4934695;29;20058;-61
2023/06/03 00:47:02;;;;;;;0.32;0.32;;;10.40;99.90;;;;;;4934782;29;20086;-61
2023/06/03 00:49:27;;;;;;;0.20;0.20;;;10.70;99.90;;;;;;4934502;29;20043;-61
2023/06/03 00:51:54;;;;;;;0.65;0.47;;;10.50;99.90;;;;;;4934570;29;20054;-61
2023/06/03 00:54:20;;;;;;;0.40;0.40;;;10.40;99.90;;;;;;4917967;29;20060;-61
2023/06/03 00:56:47;;;;;;;0.57;0.38;;;10.50;99.90;;;;;;4934541;29;20060;-61
2023/06/03 00:59:17;;;;;;;0.20;0.20;;;10.40;99.90;;;;;;4934767;29;20043;-61
2023/06/03 01:01:43;;;;;;;0.20;0.20;;;10.50;99.90;;;;;;4934534;29;20051;-61
2023/06/03 01:04:17;;;;;;;0.30;0.30;;;10.10;99.90;;;;;;4934424;29;20500;-61
2023/06/03 01:07:23;;;;;;;0.40;0.40;;;10.60;99.90;;;;;;4934452;29;20047;-61
2023/06/03 01:10:07;;;;;;;0.20;0.20;;;10.10;99.90;;;;;;4931194;29;20091;-61
2023/06/03 01:12:48;;;;;;;0.20;0.20;;;11.10;99.90;;;;;;4934463;29;20059;-61
2023/06/03 01:15:20;;;;;;;0.20;0.20;;;10.10;99.90;;;;;;4917799;29;20400;-62
2023/06/03 01:17:49;;;;;;;0.20;0.20;;;9.90;99.90;;;;;;4934533;29;20056;-62
2023/06/03 01:20:16;;;;;;;0.20;0.20;;;10.30;99.90;;;;;;4934428;29;20051;-62
2023/06/03 01:22:49;;;;;;;0.30;0.30;;;10.40;99.90;;;;;;4934429;29;20176;-61
2023/06/03 01:25:16;;;;;;;0.30;0.30;;;10.20;99.90;;;;;;4934868;29;20060;-61
2023/06/03 01:27:48;;;;;;;0.40;0.40;;;9.90;99.90;;;;;;4938404;29;20138;-61
2023/06/03 01:30:17;;;;;;;0.30;0.30;;;9.80;99.90;;;;;;4938260;29;20091;-61
2023/06/03 01:32:45;;;;;;;0.35;0.30;;;9.80;99.90;;;;;;4938205;29;20227;-62
2023/06/03 01:35:12;;;;;;;0.20;0.20;;;10.20;99.90;;;;;;4938129;29;20397;-61
2023/06/03 01:37:40;;;;;;;0.30;0.30;;;9.80;99.90;;;;;;4938015;29;20504;-61
2023/06/03 01:40:07;;;;;;;0.20;0.20;;;9.50;99.90;;;;;;4937905;29;20043;-61
2023/06/03 01:42:33;;;;;;;0.30;0.30;;;9.90;99.90;;;;;;4938139;29;20603;-61
2023/06/03 01:45:01;;;;;;;0.20;0.20;;;9.50;99.90;;;;;;4937913;29;20441;-61
2023/06/03 01:47:26;;;;;;;0.25;0.25;;;9.60;99.90;;;;;;4937925;29;20051;-61
2023/06/03 01:49:53;;;;;;;0.20;0.20;;;10.00;99.90;;;;;;4937742;29;20126;-61
2023/06/03 01:52:19;;;;;;;0.30;0.30;;;9.40;99.90;;;;;;4937726;29;20381;-61
2023/06/03 01:54:45;;;;;;;0.30;0.30;;;9.80;99.90;;;;;;4937929;29;20044;-61
2023/06/03 01:57:11;;;;;;;0.20;0.20;;;9.60;99.90;;;;;;4937637;29;20432;-61
2023/06/03 01:59:37;;;;;;;0.25;0.25;;;10.50;99.90;;;;;;4937814;29;20048;-61
2023/06/03 02:02:03;;;;;;;0.20;0.20;;;9.10;99.90;;;;;;4937702;29;20166;-61
2023/06/03 02:04:29;;;;;;;;;;;9.40;99.90;;;;;;4938037;29;20490;-61
2023/06/03 02:06:56;;;;;;;0.40;0.40;;;9.20;99.90;;;;;;4937513;29;20013;-61
2023/06/03 02:09:24;;;;;;;0.20;0.20;;;9.20;99.90;;;;;;4937399;29;20047;-61
2023/06/03 02:11:51;;;;;;;0.20;0.20;;;9.50;99.90;;;;;;4937652;29;20054;-61
2023/06/03 02:14:18;;;;;;;0.40;0.40;;;9.00;99.90;;;;;;4937728;29;20054;-62
2023/06/03 02:16:43;;;;;;;0.40;0.40;;;9.30;99.90;;;;;;4937760;29;20098;-62
2023/06/03 02:19:19;;;;;;;0.30;0.30;;;9.50;99.90;;;;;;4920401;29;20087;-61
2023/06/03 02:21:46;;;;;;;0.20;0.20;;;9.00;99.90;;;;;;4937303;29;20563;-61
2023/06/03 02:24:16;;;;;;;0.20;0.20;;;9.20;99.90;;;;;;4937386;29;20649;-61
2023/06/03 02:26:49;;;;;;;0.30;0.30;;;9.00;99.90;;;;;;4937317;29;20051;-61
2023/06/03 02:29:16;;;;;;;0.20;0.20;;;8.80;99.90;;;;;;4937178;29;20051;-61
2023/06/03 02:31:42;;;;;;;0.20;0.20;;;9.00;99.90;;;;;;4937145;29;20051;-61
2023/06/03 02:34:08;;;;;;;0.20;0.20;;;9.30;99.90;;;;;;4937035;29;20047;-62
2023/06/03 02:36:35;;;;;;;0.28;0.28;;;9.80;99.90;;;;;;4936696;29;20875;-61
2023/06/03 02:39:01;;;;;;;0.20;0.20;;;10.20;99.90;;;;;;4937152;29;20126;-61
2023/06/03 02:41:26;;;;;;;0.20;0.20;;;9.10;99.90;;;;;;4936873;29;20119;-61
2023/06/03 02:43:52;;;;;;;0.30;0.30;;;9.60;99.90;;;;;;4919844;29;20047;-61
2023/06/03 02:46:17;;;;;;;0.30;0.30;;;9.60;99.90;;;;;;4936954;29;20048;-61
2023/06/03 02:48:43;;;;;;;0.20;0.20;;;9.20;99.90;;;;;;4936760;29;20520;-61
2023/06/03 02:51:09;;;;;;;0.30;0.30;;;9.00;99.90;;;;;;4937075;29;20397;-61
2023/06/03 02:53:35;;;;;;;0.40;0.40;;;9.30;99.90;;;;;;4936851;29;20084;-61
2023/06/03 02:56:01;;;;;;;0.20;0.20;;;9.40;99.90;;;;;;4936755;29;20047;-61
2023/06/03 02:58:27;;;;;;;0.28;0.28;;;9.00;99.90;;;;;;4936313;29;20517;-61
2023/06/03 03:00:53;;;;;;;0.20;0.20;;;9.00;99.90;;;;;;4936605;29;20160;-62
2023/06/03 03:03:19;;;;;;;0.50;0.50;;;8.90;99.90;;;;;;4936419;29;20043;-61
2023/06/03 03:05:46;;;;;;;0.20;0.20;;;9.30;99.90;;;;;;4936700;29;20454;-61
2023/06/03 03:08:12;;;;;;;0.20;0.20;;;9.10;99.90;;;;;;4936599;29;20062;-61
2023/06/03 03:10:37;;;;;;;0.30;0.30;;;9.00;99.90;;;;;;4936501;29;20049;-61
2023/06/03 03:13:03;;;;;;;0.20;0.20;;;9.00;99.90;;;;;;4936490;29;20067;-62
2023/06/03 03:15:28;;;;;;;0.20;0.20;;;8.80;99.90;;;;;;4936464;29;20051;-62
2023/06/03 03:17:54;;;;;;;0.20;0.20;;;9.20;99.90;;;;;;4936252;29;20535;-61
2023/06/03 03:20:20;;;;;;;0.20;0.20;;;9.00;99.90;;;;;;4936364;29;20449;-61
2023/06/03 03:22:46;;;;;;;1.77;0.40;;;9.10;99.90;;;;;;4936302;29;20048;-61
2023/06/03 03:25:11;;;;;;;0.22;0.22;;;9.10;99.90;;;;;;4936215;29;20087;-61
2023/06/03 03:27:38;;;;;;;0.68;0.45;;;9.00;99.90;;;;;;4919076;29;20068;-62
2023/06/03 03:30:04;;;;;;;;;;;10.20;99.90;;;;;;4936387;29;20044;-61
2023/06/03 03:32:31;;;;;;;0.30;0.30;;;8.80;99.90;;;;;;4935896;29;19926;-61
2023/06/03 03:35:03;;;;;;;0.30;0.30;;;9.70;99.90;;;;;;4936362;29;20151;-62
2023/06/03 03:37:29;;;;;;;0.28;0.28;;;8.90;99.90;;;;;;4935973;29;20052;-61
2023/06/03 03:39:55;;;;;;;0.30;0.30;;;8.90;99.90;;;;;;4935977;29;20406;-61
2023/06/03 03:42:20;;;;;;;0.30;0.30;;;8.90;99.90;;;;;;4935865;29;20048;-61
2023/06/03 03:44:46;;;;;;;0.20;0.20;;;8.70;99.90;;;;;;4935770;29;20102;-61
2023/06/03 03:47:19;;;;;;;0.30;0.30;;;9.40;99.90;;;;;;4935713;29;20051;-61
2023/06/03 03:49:45;;;;;;;0.30;0.30;;;9.10;99.90;;;;;;4935242;29;20433;-61
2023/06/03 03:52:13;;;;;;;0.38;0.38;;;8.90;99.90;;;;;;4935816;29;20102;-61
2023/06/03 03:54:39;;;;;;;0.20;0.20;;;9.10;99.90;;;;;;4935661;29;20510;-61
2023/06/03 03:57:12;;;;;;;0.30;0.30;;;9.30;99.90;;;;;;4935385;29;20098;-61
2023/06/03 03:59:38;;;;;;;0.28;0.28;;;9.40;99.90;;;;;;4935405;29;20051;-61
2023/06/03 04:02:04;;;;;;;2.10;0.38;;;9.30;99.90;;;;;;4936010;29;20055;-61
2023/06/03 04:04:42;;;;;;;0.20;0.20;;;9.50;99.90;;;;;;4935645;29;20106;-61
2023/06/03 04:07:16;;;;;;;0.20;0.20;;;9.10;99.90;;;;;;4935701;29;20043;-61
2023/06/03 04:09:42;;;;;;;0.20;0.20;;;9.40;99.90;;;;;;4935567;29;20122;-61
2023/06/03 04:12:22;;;;;;;;;;;9.50;99.90;;;;;;4935765;29;20054;-61
2023/06/03 04:14:50;;;;;;;0.20;0.20;;;9.70;99.90;;;;;;4918483;29;19927;-61
2023/06/03 04:17:21;;;;;;;0.40;0.40;;;9.60;99.90;;;;;;4935371;29;20095;-61
2023/06/03 04:19:48;;;;;;;0.35;0.35;;;9.90;99.90;;;;;;4935220;29;20547;-61
2023/06/03 04:22:23;;;;;;;0.55;0.55;;;9.70;99.90;;;;;;4935123;29;20052;-61
2023/06/03 04:24:58;;;;;;;0.20;0.20;;;9.80;99.90;;;;;;4935061;29;20048;-61
2023/06/03 04:27:24;;;;;;;0.20;0.20;;;10.00;99.90;;;;;;4935219;29;20055;-61
2023/06/03 04:29:50;;;;;;;0.30;0.30;;;10.00;99.90;;;;;;4934913;29;20548;-61
2023/06/03 04:32:16;;;;;;;0.30;0.30;;;10.00;99.90;;;;;;4934924;29;20052;-61
2023/06/03 04:34:54;;;;;;;0.30;0.30;;;10.20;99.90;;;;;;4934917;29;20142;-62
2023/06/03 04:37:20;;;;;;;0.30;0.30;;;10.10;99.90;;;;;;4934874;29;20102;-62
2023/06/03 04:39:46;;;;;;;0.28;0.28;;;10.20;99.90;;;;;;4934969;29;20043;-61
2023/06/03 04:42:13;;;;;;;4.78;0.77;;;10.00;99.90;;;;;;4934935;29;20374;-61
2023/06/03 04:44:39;;;;;;;;;;;10.20;99.90;;;;;;4935263;29;20469;-61
2023/06/03 04:47:10;;;;;;;0.30;0.30;;;10.40;99.90;;;;;;4934801;29;20041;-61
2023/06/03 04:49:38;;;;;;;0.45;0.45;;;10.10;99.90;;;;;;4934614;29;20071;-61
2023/06/03 04:52:09;;;;;;;0.20;0.20;;;10.40;99.90;;;;;;4917869;29;20047;-62
2023/06/03 04:54:40;;;;;;;0.20;0.20;;;10.30;99.90;;;;;;4934825;29;20058;-62
2023/06/03 04:57:06;;;;;;;0.20;0.20;;;10.20;99.90;;;;;;4934686;29;20067;-62
2023/06/03 04:59:33;;;;;;;0.20;0.20;;;10.60;99.90;;;;;;4934108;29;20134;-61
2023/06/03 05:01:58;;;;;;;;;;;10.50;99.90;;;;;;4934645;29;20118;-61
2023/06/03 05:04:29;;;;;;;0.30;0.30;;;10.80;99.90;;;;;;4934449;29;19926;-62
2023/06/03 05:06:55;;;;;;;0.40;0.40;;;10.70;99.90;;;;;;4934719;29;20420;-61
2023/06/03 05:09:21;;;;;;;0.73;0.32;;;10.90;99.90;;;;;;4934545;29;20059;-62
2023/06/03 05:11:47;;;;;;;0.20;0.20;;;11.30;99.90;;;;;;4934550;29;20507;-62
2023/06/03 05:14:13;;;;;;;0.30;0.30;;;11.20;99.90;;;;;;4934553;29;20487;-62
2023/06/03 05:16:38;;;;;;;0.20;0.20;;;11.60;99.90;;;;;;4934467;29;20099;-62
2023/06/03 05:19:04;;;;;;;0.30;0.30;;;11.30;99.90;;;;;;4934340;29;20051;-62
2023/06/03 05:21:30;;;;;;;0.40;0.40;;;11.80;99.90;;;;;;4934504;29;20039;-61
2023/06/03 05:23:56;;;;;;;0.20;0.20;;;11.90;99.90;;;;;;4934467;29;20052;-63
2023/06/03 05:26:22;;;;;;;0.30;0.30;;;11.90;99.90;;;;;;4934478;29;20083;-61
2023/06/03 05:28:51;;;;;;;0.20;0.20;;;11.80;99.90;;;;;;4934352;29;20048;-62
2023/06/03 05:31:16;;;;;;;0.22;0.22;;;12.20;99.90;;;;;;4934217;29;20048;-62
2023/06/03 05:33:43;;;;;;;0.20;0.20;;;12.00;99.90;;;;;;4934178;29;20134;-62
2023/06/03 05:36:10;;;;;;;0.20;0.20;;;12.10;99.90;;;;;;4917345;29;20111;-63
2023/06/03 05:38:36;;;;;;;0.73;0.73;;;12.30;99.90;;;;;;4934424;29;20342;-62
2023/06/03 05:41:03;;;;;;;0.40;0.40;;;12.50;99.90;;;;;;4934183;29;20051;-63
2023/06/03 05:43:29;;;;;;;0.20;0.20;;;12.30;99.90;;;;;;4934198;29;20052;-62
2023/06/03 05:45:55;;;;;;;0.43;0.43;;;12.50;99.90;;;;;;4934171;29;20083;-62
2023/06/03 05:48:21;;;;;;;0.30;0.30;;;12.80;99.90;;;;;;4934230;29;20094;-62
2023/06/03 05:50:52;;;;;;;0.30;0.30;;;12.80;99.90;;;;;;4934277;29;20079;-62
2023/06/03 05:53:25;;;;;;;0.20;0.20;;;12.50;99.90;;;;;;4934009;29;20095;-62
2023/06/03 05:55:51;;;;;;;0.20;0.20;;;12.90;99.90;;;;;;4934238;29;20137;-62
2023/06/03 05:58:17;;;;;;;0.20;0.20;;;13.10;99.90;;;;;;4917199;29;20110;-62
2023/06/03 06:00:43;;;;;;;0.20;0.20;;;13.40;99.90;;;;;;4927082;29;20048;-62
2023/06/03 06:03:09;;;;;;;0.20;0.20;;;13.10;99.90;;;;;;4932742;29;20051;-62
2023/06/03 06:05:35;;;;;;;0.30;0.30;;;13.30;99.90;;;;;;4933270;29;20408;-62
2023/06/03 06:08:00;;;;;;;0.40;0.40;;;13.60;99.90;;;;;;4933152;29;20164;-62
2023/06/03 06:10:26;;;;;;;0.20;0.20;;;13.20;99.90;;;;;;4933011;29;20508;-63
2023/06/03 06:12:52;;;;;;;0.20;0.20;;;13.80;99.90;;;;;;4936375;29;20055;-62
2023/06/03 06:15:18;;;;;;;0.40;0.40;;;14.00;99.90;;;;;;4935920;29;20051;-62
2023/06/03 06:17:43;;;;;;;0.20;0.20;;;14.30;99.90;;;;;;4936980;29;20054;-62
2023/06/03 06:20:12;;;;;;;0.20;0.20;;;14.20;99.90;;;;;;4936868;29;20040;-62
2023/06/03 06:22:38;;;;;;;0.20;0.20;;;14.30;99.90;;;;;;4936301;29;20055;-62
2023/06/03 06:25:08;;;;;;;1.98;0.52;;;14.20;99.90;;;;;;4936619;29;20124;-62
2023/06/03 06:27:34;;;;;;;0.20;0.20;;;14.70;99.90;;;;;;4936756;29;20051;-62
2023/06/03 06:30:00;;;;;;;0.20;0.20;;;14.70;99.90;;;;;;4935719;29;20081;-61
2023/06/03 06:32:26;;;;;;;;;;;14.70;99.90;;;;;;4936068;29;20087;-62
2023/06/03 06:34:52;;;;;;;0.50;0.50;;;14.40;99.90;;;;;;4936519;29;19940;-62
2023/06/03 06:37:19;;;;;;;0.20;0.20;;;14.40;99.90;;;;;;4935997;29;20428;-62
2023/06/03 06:39:49;;;;;;;0.10;0.10;;;14.30;99.90;;;;;;4936187;29;20075;-62
2023/06/03 06:42:34;;;;;;;0.30;0.30;;;14.40;99.90;;;;;;4935168;29;20526;-62
2023/06/03 06:45:08;;;;;;;0.20;0.20;;;14.20;99.90;;;;;;4935771;29;20118;-62
2023/06/03 06:47:36;;;;;;;0.20;0.20;;;14.10;99.90;;;;;;4936669;29;20059;-62
2023/06/03 06:50:07;;;;;;;0.20;0.20;;;14.20;99.90;;;;;;4936212;29;20396;-62
2023/06/03 06:52:34;;;;;;;0.30;0.30;;;13.90;99.90;;;;;;4934710;29;20040;-62
2023/06/03 06:55:01;;;;;;;0.20;0.20;;;13.70;99.90;;;;;;4936071;29;20126;-62
2023/06/03 06:57:28;;;;;;;0.20;0.20;;;13.80;99.90;;;;;;4935768;29;20521;-62
2023/06/03 06:59:54;;;;;;;0.20;0.20;;;13.80;99.90;;;;;;4934575;29;20066;-62
2023/06/03 07:02:21;;;;;;;0.30;0.30;;;13.80;99.90;;;;;;4935829;29;20052;-62
2023/06/03 07:04:50;;;;;;;0.47;0.47;;;14.10;99.90;;;;;;4934411;29;20083;-62
2023/06/03 07:07:16;;;;;;;0.30;0.30;;;13.70;99.90;;;;;;4935431;29;20407;-62
2023/06/03 07:09:42;;;;;;;0.20;0.20;;;13.70;99.90;;;;;;4934970;29;20047;-62
2023/06/03 07:12:08;;;;;;;0.22;0.22;;;13.70;99.90;;;;;;4936112;29;20086;-62
2023/06/03 07:14:34;;;;;;;0.30;0.30;;;14.20;99.90;;;;;;4935073;29;20090;-62
2023/06/03 07:17:00;;;;;;;0.20;0.20;;;13.80;99.90;;;;;;4935938;29;20087;-62
2023/06/03 07:19:43;;;;;;;0.30;0.30;;;14.50;99.90;;;;;;4935688;29;20047;-62
2023/06/03 07:22:09;;;;;;;0.28;0.28;;;14.60;99.90;;;;;;4935081;29;20134;-63
2023/06/03 07:24:36;;;;;;;0.20;0.20;;;14.40;99.90;;;;;;4934889;29;20135;-62
2023/06/03 07:27:05;;;;;;;0.35;0.35;;;14.50;99.90;;;;;;4934567;29;20102;-62
2023/06/03 07:29:36;;;;;;;0.22;0.22;;;14.60;99.90;;;;;;4934458;29;20062;-62
2023/06/03 07:32:04;;;;;;;0.17;0.17;;;14.40;99.90;;;;;;4935685;29;20090;-61
2023/06/03 07:34:30;;;;;;;0.10;0.10;;;14.60;99.90;;;;;;4934900;29;20044;-62
2023/06/03 07:37:01;;;;;;;0.25;0.25;;;14.90;99.90;;;;;;4917761;29;20062;-62
2023/06/03 07:39:26;;;;;;;0.13;0.13;;;15.00;99.90;;;;;;4935643;29;20083;-62
2023/06/03 07:41:52;;;;;;;0.20;0.20;;;15.20;99.90;;;;;;4935746;29;20091;-63
2023/06/03 07:44:36;;;;;;;;;;;15.70;99.90;;;;;;4936314;29;20052;-62
2023/06/03 07:47:02;;;;;;;0.28;0.20;;;15.80;99.90;;;;;;4935734;29;19934;-63
2023/06/03 07:49:28;;;;;;;0.20;0.20;;;15.80;99.90;;;;;;4935889;29;20488;-62
2023/06/03 07:51:54;;;;;;;;;;;15.90;99.90;;;;;;4936294;29;20059;-62
2023/06/03 07:54:19;;;;;;;0.10;0.10;;;15.70;99.90;;;;;;4936065;29;19978;-62
2023/06/03 07:56:46;;;;;;;0.30;0.30;;;16.20;99.90;;;;;;4935651;29;20055;-62
2023/06/03 07:59:14;;;;;;;0.20;0.20;;;16.50;99.90;;;;;;4935771;29;20051;-61
2023/06/03 08:01:40;;;;;;;0.10;0.10;;;16.40;99.90;;;;;;4935488;29;20050;-62
2023/06/03 08:04:34;;;;;;;0.15;0.15;;;16.50;99.90;;;;;;4935684;29;20062;-62
2023/06/03 08:07:02;;;;;;;0.10;0.10;;;16.60;99.90;;;;;;4935551;29;20094;-62
2023/06/03 08:09:30;;;;;;;0.15;0.15;;;16.70;99.90;;;;;;4935117;29;20149;-62
2023/06/03 08:11:56;;;;;;;0.10;0.10;;;16.90;99.90;;;;;;4935289;29;20069;-62
2023/06/03 08:14:24;;;;;;;0.20;0.15;;;16.90;99.90;;;;;;4935059;29;20052;-62
2023/06/03 08:16:51;;;;;;;0.10;0.10;;;17.20;99.90;;;;;;4935143;29;20048;-62
2023/06/03 08:19:18;;;;;;;0.15;0.15;;;17.40;99.90;;;;;;4934896;29;20067;-62
2023/06/03 08:21:46;;;;;;;0.22;0.22;;;17.70;99.90;;;;;;4935244;29;20075;-61
2023/06/03 08:24:13;;;;;;;0.20;0.20;;;17.50;99.90;;;;;;4935137;29;20464;-62
2023/06/03 08:26:40;;;;;;;0.45;0.45;;;17.60;99.90;;;;;;4934996;29;20094;-63
2023/06/03 08:29:06;;;;;;;0.10;0.10;;;17.80;99.90;;;;;;4935168;29;20519;-62
2023/06/03 08:31:34;;;;;;;;;;;17.70;99.90;;;;;;4934231;29;20043;-61
2023/06/03 08:34:03;;;;;;;0.20;0.20;;;18.00;99.90;;;;;;4928507;29;20409;-62
2023/06/03 08:36:30;;;;;;;0.43;0.43;;;17.90;99.90;;;;;;4934340;29;20056;-62
2023/06/03 08:38:56;;;;;;;0.10;0.10;;;18.10;99.90;;;;;;4934278;29;20083;-62
2023/06/03 08:41:25;;;;;;;;;;;17.80;99.90;;;;;;4933678;29;20044;-61
2023/06/03 08:44:00;;;;;;;0.15;0.15;;;18.10;99.90;;;;;;4927314;29;19977;-61
2023/06/03 08:46:35;;;;;;;0.20;0.20;;;18.30;99.90;;;;;;4917337;29;20126;-61
2023/06/03 08:49:07;;;;;;;0.10;0.10;;;18.20;99.90;;;;;;4933120;29;20377;-61
2023/06/03 08:51:43;;;;;;;0.35;0.35;;;18.40;99.90;;;;;;4933330;29;20090;-62
2023/06/03 08:54:13;;;;;;;0.40;0.40;;;18.50;99.90;;;;;;4929313;29;20044;-61
2023/06/03 08:56:47;;;;;;;0.10;0.10;;;18.60;99.90;;;;;;4933330;29;20051;-61
2023/06/03 08:59:21;;;;;;;0.10;0.10;;;18.50;99.90;;;;;;4933658;29;20047;-61
2023/06/03 09:01:52;;;;;;;0.10;0.10;;;18.70;99.90;;;;;;4933377;29;20689;-61
2023/06/03 09:04:19;;;;;;;0.20;0.20;;;18.70;99.90;;;;;;4933370;29;20118;-61
2023/06/03 09:06:48;;;;;;;0.10;0.10;;;19.50;99.90;;;;;;4933246;29;20051;-61
2023/06/03 09:09:15;;;;;;;0.10;0.10;;;19.10;99.90;;;;;;4934531;29;20062;-61
2023/06/03 09:11:43;;;;;;;0.10;0.10;;;19.00;99.30;;;;;;4933091;29;20079;-61
2023/06/03 09:14:10;;;;;;;0.20;0.20;;;19.40;97.70;;;;;;4932659;29;20087;-61
2023/06/03 09:16:36;;;;;;;0.22;0.22;;;19.10;98.20;;;;;;4933077;29;20134;-61
2023/06/03 09:19:04;;;;;;;0.10;0.10;;;19.10;97.90;;;;;;4932929;29;20062;-61
2023/06/03 09:21:30;;;;;;;0.10;0.10;;;19.50;98.30;;;;;;4933281;29;20087;-62
2023/06/03 09:23:57;;;;;;;0.00;0.00;;;18.90;96.30;;;;;;4934098;29;20051;-60
2023/06/03 09:26:26;;;;;;;0.10;0.10;;;19.30;95.90;;;;;;4933371;29;20058;-62
2023/06/03 09:28:52;;;;;;;0.10;0.10;;;19.40;95.40;;;;;;4916887;29;20515;-61
2023/06/03 09:31:19;;;;;;;0.10;0.10;;;19.50;96.90;;;;;;4932473;29;20048;-62
2023/06/03 09:33:46;;;;;;;0.30;0.30;;;19.40;96.80;;;;;;4934061;29;20048;-61
2023/06/03 09:36:13;;;;;;;0.20;0.20;;;19.50;98.40;;;;;;4934130;29;20095;-60
2023/06/03 09:38:54;;;;;;;0.10;0.10;;;19.30;97.20;;;;;;4930808;29;20049;-61
2023/06/03 09:41:26;;;;;;;0.03;0.03;;;19.20;95.70;;;;;;4931818;29;20044;-61
2023/06/03 09:44:03;;;;;;;0.10;0.10;;;19.30;95.60;;;;;;4920885;29;20043;-62
2023/06/03 09:46:30;;;;;;;0.20;0.20;;;19.50;95.50;;;;;;4933810;29;20043;-61
2023/06/03 09:49:10;;;;;;;1.15;0.52;;;19.60;96.80;;;;;;4934883;29;20441;-62
2023/06/03 09:51:44;;;;;;;0.10;0.10;;;19.90;98.30;;;;;;4936936;29;20048;-61
2023/06/03 09:54:13;;;;;;;0.10;0.10;;;19.80;95.40;;;;;;4934508;29;20150;-60
2023/06/03 09:56:40;;;;;;;0.10;0.10;;;20.10;96.30;;;;;;4919784;29;20924;-61
2023/06/03 09:59:21;;;;;;;0.10;0.10;;;19.90;96.80;;;;;;4936767;29;20040;-61
2023/06/03 10:01:48;;;;;;;0.10;0.10;;;20.30;95.40;;;;;;4920040;29;20055;-61
2023/06/03 10:04:20;;;;;;;0.10;0.10;;;20.10;95.90;;;;;;4932338;29;20543;-61
2023/06/03 10:06:47;;;;;;;0.10;0.10;;;20.30;95.40;;;;;;4936744;29;20047;-61
2023/06/03 10:09:19;;;;;;;0.20;0.20;;;20.20;96.90;;;;;;4936557;29;20118;-61
2023/06/03 10:11:47;;;;;;;0.38;0.30;;;20.10;96.20;;;;;;4936313;29;20142;-62
2023/06/03 10:14:14;;;;;;;0.20;0.20;;;20.40;96.50;;;;;;4936758;29;20048;-62
2023/06/03 10:16:40;;;;;;;0.10;0.10;;;20.50;95.90;;;;;;4936774;29;20059;-62
2023/06/03 10:19:06;;;;;;;0.20;0.20;;;20.60;95.90;;;;;;4936734;29;20453;-61
2023/06/03 10:21:34;;;;;;;0.65;0.30;;;20.90;95.00;;;;;;4936191;29;20497;-61
2023/06/03 10:24:04;;;;;;;0.10;0.10;;;20.40;94.70;;;;;;4936303;29;20522;-61
2023/06/03 10:26:31;;;;;;;0.00;0.00;;;20.60;94.20;;;;;;4934856;29;20106;-62
2023/06/03 10:28:58;;;;;;;0.10;0.10;;;20.70;94.70;;;;;;4936400;29;20051;-61
2023/06/03 10:31:25;;;;;;;0.20;0.20;;;20.40;93.80;;;;;;4936600;29;20113;-64
2023/06/03 10:33:53;;;;;;;0.17;0.13;;;20.90;93.80;;;;;;4935939;29;20039;-62
2023/06/03 10:36:21;;;;;;;0.03;0.03;;;20.70;93.80;;;;;;4936500;29;20051;-61
2023/06/03 10:38:48;;;;;;;0.20;0.20;;;20.60;94.60;;;;;;4936269;29;20055;-62
2023/06/03 10:41:14;;;;;;;0.10;0.10;;;21.30;95.40;;;;;;4936527;29;20091;-63
2023/06/03 10:43:43;;;;;;;0.10;0.10;;;20.90;93.00;;;;;;4934494;29;20079;-62
2023/06/03 10:46:11;;;;;;;0.50;0.50;;;20.90;92.60;;;;;;4936114;29;20051;-61
2023/06/03 10:48:38;;;;;;;0.00;0.00;;;20.90;94.40;;;;;;4935644;29;20044;-61
2023/06/03 10:51:28;;;;;;;0.30;0.30;;;20.60;93.90;;;;;;4936186;29;20091;-62
2023/06/03 10:54:12;;;;;;;0.10;0.10;;;20.60;94.40;;;;;;4935004;29;20072;-63
2023/06/03 10:56:43;;;;;;;0.10;0.10;;;20.70;94.20;;;;;;4935643;29;20047;-61
2023/06/03 10:59:15;;;;;;;0.00;0.00;;;20.80;94.90;;;;;;4935498;29;20372;-61
2023/06/03 11:02:03;;;;;;;0.10;0.10;;;20.80;96.10;;;;;;4936122;29;20051;-61
2023/06/03 11:04:31;;;;;;;0.03;0.03;;;21.40;93.40;;;;;;4935867;29;20059;-63
2023/06/03 11:06:57;;;;;;;2.50;0.57;;;21.30;93.60;;;;;;4936251;29;20058;-62
2023/06/03 11:09:34;;;;;;;0.10;0.10;;;21.00;93.90;;;;;;4935838;29;20047;-60
2023/06/03 11:12:06;;;;;;;0.30;0.30;;;21.30;94.30;;;;;;4935442;29;20063;-63
2023/06/03 11:14:40;;;;;;;0.10;0.10;;;20.90;93.90;;;;;;4935933;29;20131;-61
2023/06/03 11:17:08;;;;;;;0.10;0.10;;;21.10;94.50;;;;;;4935970;29;20059;-62
2023/06/03 11:20:01;;;;;;;0.17;0.17;;;21.10;95.70;;;;;;4935834;29;20062;-62
2023/06/03 11:22:27;;;;;;;0.00;0.00;;;21.00;94.60;;;;;;4932773;29;20147;-61
2023/06/03 11:24:53;;;;;;;0.10;0.10;;;21.10;95.10;;;;;;4935679;29;20130;-61
2023/06/03 11:27:19;;;;;;;0.00;0.00;;;21.60;95.60;;;;;;4935418;29;20044;-60
2023/06/03 11:29:48;;;;;;;0.10;0.10;;;21.50;95.80;;;;;;4935304;29;20142;-61
2023/06/03 11:32:15;;;;;;;0.25;0.25;;;21.40;97.60;;;;;;4934210;29;20410;-61
2023/06/03 11:34:42;;;;;;;0.82;0.40;;;21.20;96.60;;;;;;4935292;29;20067;-61
2023/06/03 11:37:08;;;;;;;0.00;0.00;;;21.60;96.10;;;;;;4935335;29;20047;-61
2023/06/03 11:40:08;;;;;;;0.22;0.22;;;21.00;95.70;;;;;;4935307;29;20405;-60
2023/06/03 11:42:48;;;;;;;0.10;0.10;;;21.10;96.00;;;;;;4933492;29;20051;-60
2023/06/03 11:45:17;;;;;;;0.10;0.10;;;20.90;96.10;;;;;;4935302;29;20054;-60
2023/06/03 11:48:03;;;;;;;0.10;0.10;;;21.10;96.70;;;;;;4935477;29;20485;-61
2023/06/03 11:50:31;;;;;;;0.00;0.00;;;21.20;96.80;;;;;;4935482;29;20404;-60
2023/06/03 11:52:57;;;;;;;0.00;0.00;;;20.90;98.10;;;;;;4935336;29;20052;-60
2023/06/03 11:55:25;;;;;;;0.10;0.10;;;21.20;97.30;;;;;;4935147;29;20048;-62
2023/06/03 11:57:52;;;;;;;0.10;0.10;;;21.10;96.60;;;;;;4935031;29;20115;-60
2023/06/03 12:00:19;;;;;;;0.22;0.22;;;21.30;97.40;;;;;;4935497;29;20044;-60
2023/06/03 12:02:47;;;;;;;0.30;0.30;;;21.40;97.60;;;;;;4935454;29;20147;-60
2023/06/03 12:05:17;;;;;;;0.10;0.10;;;21.40;94.90;;;;;;4935269;29;20416;-60
2023/06/03 12:08:00;;;;;;;0.47;0.20;;;21.40;96.40;;;;;;4918067;29;20052;-61
2023/06/03 12:10:27;;;;;;;0.10;0.10;;;21.60;97.20;;;;;;4934663;29;20496;-60
2023/06/03 12:12:57;;;;;;;0.10;0.10;;;21.70;96.60;;;;;;4935021;29;20551;-60
2023/06/03 12:15:24;;;;;;;0.13;0.13;;;21.50;96.80;;;;;;4918346;29;20051;-61
2023/06/03 12:17:50;;;;;;;0.10;0.10;;;21.20;96.10;;;;;;4935042;29;20051;-60
2023/06/03 12:20:27;;;;;;;0.20;0.20;;;21.10;96.20;;;;;;4935015;29;20054;-60
2023/06/03 12:22:59;;;;;;;0.05;0.05;;;21.30;95.90;;;;;;4934311;29;20416;-60
2023/06/03 12:25:27;;;;;;;0.05;0.05;;;21.10;96.80;;;;;;4934716;29;20087;-59
2023/06/03 12:27:54;;;;;;;0.20;0.20;;;21.80;97.40;;;;;;4934767;29;20087;-60
2023/06/03 12:30:30;;;;;;;0.00;0.00;;;21.30;97.30;;;;;;4934792;29;20054;-60
2023/06/03 12:32:57;;;;;;;0.32;0.20;;;21.60;96.80;;;;;;4934807;29;20083;-60
2023/06/03 12:35:26;;;;;;;0.38;0.20;;;21.50;97.20;;;;;;4934798;29;20055;-60
2023/06/03 12:38:08;;;;;;;0.55;0.30;;;21.20;96.10;;;;;;4934594;29;20511;-60
2023/06/03 12:40:37;;;;;;;0.10;0.10;;;21.10;97.60;;;;;;4917700;29;20571;-60
2023/06/03 12:43:04;;;;;;;0.20;0.20;;;21.60;94.80;;;;;;4934640;29;20130;-60
2023/06/03 12:45:29;;;;;;;0.10;0.10;;;21.40;94.60;;;;;;4934720;29;20408;-60
2023/06/03 12:47:55;;;;;;;0.15;0.15;;;21.30;93.80;;;;;;4933644;29;20048;-60
2023/06/03 12:50:23;;;;;;;0.00;0.00;;;21.40;94.80;;;;;;4934734;29;20161;-60
2023/06/03 12:52:49;;;;;;;0.05;0.05;;;21.40;94.00;;;;;;4934455;29;20048;-60
2023/06/03 12:55:17;;;;;;;0.08;0.08;;;21.40;93.40;;;;;;4934751;29;20487;-60
2023/06/03 12:57:48;;;;;;;0.00;0.00;;;21.40;93.60;;;;;;4934420;29;20051;-61
2023/06/03 13:00:15;;;;;;;0.13;0.13;;;21.20;93.60;;;;;;4934628;29;20071;-60